Time;durP1;ratioP1;P1;durP2;ratioP2;P2;SDS_P1;SDS_P2;PMS_P1;PMS_P2;Temp;Humidity;BMP_temperature;BMP_pressure;BME280_temperature;BME280_humidity;BME280_pressure;Samples;Min_cycle;Max_cycle;Signal;HPM_P1;HPM_P2
2024/04/17 00:00:57;;;;;;;;;;;;;;;11.38;nan;99003.72;4600169;25;19931;-72
2024/04/17 00:02:58;;;;;;;;;;;;;;;10.98;nan;99016.28;4600016;25;19927;-71
2024/04/17 00:04:58;;;;;;;;;;;;;;;11.18;nan;99005.16;4600290;25;19972;-73
2024/04/17 00:06:58;;;;;;;;;;;;;;;11.12;nan;99008.53;4600630;25;19938;-72
2024/04/17 00:08:59;;;;;;;;;;;;;;;11.36;nan;99002.25;4600015;25;20376;-73
2024/04/17 00:11:00;;;;;;;;;;;;;;;10.97;nan;99003.09;4600030;25;19995;-72
2024/04/17 00:13:00;;;;;;;;;;;;;;;11.02;nan;99006.06;4599421;25;19934;-72
2024/04/17 00:15:01;;;;;;;;;;;;;;;11.13;nan;99003.00;4600050;25;19955;-74
2024/04/17 00:17:01;;;;;;;;;;;;;;;11.10;nan;99007.88;4599825;25;19927;-74
2024/04/17 00:19:02;;;;;;;;;;;;;;;11.15;nan;99002.81;4600331;25;20368;-72
2024/04/17 00:21:03;;;;;;;;;;;;;;;11.27;nan;98998.75;4600442;25;19971;-71
2024/04/17 00:23:03;;;;;;;;;;;;;;;11.22;nan;98996.63;4605602;25;19927;-72
2024/04/17 00:25:03;;;;;;;;;;;;;;;11.23;nan;99002.81;4611500;25;19927;-73
2024/04/17 00:27:04;;;;;;;;;;;;;;;11.19;nan;98994.28;4611060;25;19991;-71
2024/04/17 00:29:04;;;;;;;;;;;;;;;11.34;nan;98996.22;4611869;25;19927;-72
2024/04/17 00:31:05;;;;;;;;;;;;;;;11.34;nan;98991.69;4612257;25;19970;-71
2024/04/17 00:33:05;;;;;;;;;;;;;;;11.31;nan;98988.53;4579962;26;19927;-73
2024/04/17 00:35:07;;;;;;;;;;;;;;;11.39;nan;98985.81;4614022;25;19933;-72
2024/04/17 00:37:07;;;;;;;;;;;;;;;10.77;nan;98987.44;4613675;25;19927;-71
2024/04/17 00:39:07;;;;;;;;;;;;;;;10.58;nan;98983.34;4612429;25;19971;-71
2024/04/17 00:41:07;;;;;;;;;;;;;;;10.52;nan;98989.34;4601689;25;20482;-72
2024/04/17 00:43:09;;;;;;;;;;;;;;;10.51;nan;98990.34;4613248;25;20197;-71
2024/04/17 00:45:09;;;;;;;;;;;;;;;10.32;nan;98994.19;4614045;25;19931;-71
2024/04/17 00:47:10;;;;;;;;;;;;;;;10.34;nan;98990.34;4611319;25;19931;-71
2024/04/17 00:49:11;;;;;;;;;;;;;;;10.38;nan;98990.88;4580478;26;19935;-71
2024/04/17 00:51:11;;;;;;;;;;;;;;;10.49;nan;98984.31;4609251;25;20008;-72
2024/04/17 00:53:17;;;;;;;;;;;;;;;10.26;nan;98985.84;4605376;25;20446;-71
2024/04/17 00:55:18;;;;;;;;;;;;;;;10.59;nan;98984.97;4604160;25;20022;-72
2024/04/17 00:57:18;;;;;;;;;;;;;;;10.48;nan;98988.84;4599879;25;19927;-71
2024/04/17 00:59:18;;;;;;;;;;;;;;;10.89;nan;98986.06;4599319;25;19957;-72
2024/04/17 01:01:19;;;;;;;;;;;;;;;11.15;nan;98986.78;4598891;25;19927;-72
2024/04/17 01:03:19;;;;;;;;;;;;;;;11.28;nan;98984.38;4599317;25;19939;-72
2024/04/17 01:05:19;;;;;;;;;;;;;;;11.37;nan;98994.03;4600086;25;19927;-71
2024/04/17 01:07:21;;;;;;;;;;;;;;;11.43;nan;98994.34;4599886;25;19927;-71
2024/04/17 01:09:22;;;;;;;;;;;;;;;11.61;nan;98986.03;4599042;25;19926;-71
2024/04/17 01:11:22;;;;;;;;;;;;;;;11.48;nan;98987.44;4598356;25;19934;-72
2024/04/17 01:13:22;;;;;;;;;;;;;;;11.55;nan;98984.91;4599369;25;20252;-73
2024/04/17 01:15:22;;;;;;;;;;;;;;;11.40;nan;98976.78;4599454;25;19926;-72
2024/04/17 01:17:23;;;;;;;;;;;;;;;11.41;nan;98977.63;4599159;25;19927;-73
2024/04/17 01:19:23;;;;;;;;;;;;;;;11.46;nan;98983.28;4599350;25;19935;-71
2024/04/17 01:21:24;;;;;;;;;;;;;;;11.47;nan;98974.25;4600401;25;20033;-71
2024/04/17 01:23:24;;;;;;;;;;;;;;;11.48;nan;98973.25;4599336;25;20384;-71
2024/04/17 01:25:25;;;;;;;;;;;;;;;11.53;nan;98970.84;4598975;25;20360;-72
2024/04/17 01:27:25;;;;;;;;;;;;;;;11.65;nan;98972.13;4599530;25;19990;-72
2024/04/17 01:29:25;;;;;;;;;;;;;;;11.22;nan;98969.88;4599105;25;19935;-71
2024/04/17 01:31:26;;;;;;;;;;;;;;;10.92;nan;98964.31;4565820;26;20259;-71
2024/04/17 01:33:27;;;;;;;;;;;;;;;10.82;nan;98969.03;4608693;25;20008;-75
2024/04/17 01:35:27;;;;;;;;;;;;;;;11.15;nan;98968.06;4582019;26;19931;-72
2024/04/17 01:37:28;;;;;;;;;;;;;;;11.03;nan;98981.00;4615466;25;19947;-72
2024/04/17 01:39:28;;;;;;;;;;;;;;;11.62;nan;98975.13;4578462;25;19935;-71
2024/04/17 01:41:28;;;;;;;;;;;;;;;11.63;nan;98971.44;4580246;26;19938;-72
2024/04/17 01:43:30;;;;;;;;;;;;;;;11.19;nan;98978.22;4558825;26;19932;-71
2024/04/17 01:45:30;;;;;;;;;;;;;;;11.08;nan;98984.00;4555832;26;19939;-72
2024/04/17 01:47:30;;;;;;;;;;;;;;;10.85;nan;98984.75;4567666;26;19935;-74
2024/04/17 01:49:31;;;;;;;;;;;;;;;10.75;nan;98981.44;4556620;25;19931;-73
2024/04/17 01:51:31;;;;;;;;;;;;;;;10.48;nan;98980.00;4554052;26;19931;-72
2024/04/17 01:53:31;;;;;;;;;;;;;;;10.33;nan;98972.66;4538179;26;20356;-71
2024/04/17 01:55:31;;;;;;;;;;;;;;;10.17;nan;98980.69;4508489;26;19940;-72
2024/04/17 01:57:32;;;;;;;;;;;;;;;10.41;nan;98982.53;4522379;26;19931;-72
2024/04/17 01:59:32;;;;;;;;;;;;;;;10.67;nan;98981.47;4571543;25;20387;-72
2024/04/17 02:01:34;;;;;;;;;;;;;;;10.53;nan;98981.13;4571136;26;19935;-71
2024/04/17 02:03:35;;;;;;;;;;;;;;;10.38;nan;98982.84;4584737;26;19927;-73
2024/04/17 02:05:36;;;;;;;;;;;;;;;10.39;nan;98992.53;4554405;26;19928;-71
2024/04/17 02:07:36;;;;;;;;;;;;;;;10.27;nan;98987.50;4573302;26;19927;-72
2024/04/17 02:09:36;;;;;;;;;;;;;;;10.56;nan;98983.47;4571361;25;20606;-71
2024/04/17 02:11:37;;;;;;;;;;;;;;;10.55;nan;98992.50;4571027;26;19927;-71
2024/04/17 02:13:37;;;;;;;;;;;;;;;10.63;nan;98986.31;4574152;26;20253;-71
2024/04/17 02:15:37;;;;;;;;;;;;;;;10.60;nan;99002.69;4575472;26;19935;-71
2024/04/17 02:17:38;;;;;;;;;;;;;;;10.65;nan;98989.66;4575526;26;19927;-72
2024/04/17 02:19:38;;;;;;;;;;;;;;;10.87;nan;98996.09;4572224;25;19931;-72
2024/04/17 02:21:38;;;;;;;;;;;;;;;10.96;nan;98999.56;4571099;26;20364;-73
2024/04/17 02:23:39;;;;;;;;;;;;;;;11.00;nan;98998.22;4571536;26;20596;-72
2024/04/17 02:25:40;;;;;;;;;;;;;;;10.38;nan;98998.88;4571123;26;19928;-72
2024/04/17 02:27:40;;;;;;;;;;;;;;;10.15;nan;99000.38;4571234;26;19935;-72
2024/04/17 02:29:40;;;;;;;;;;;;;;;10.03;nan;99009.72;4571821;25;19931;-72
2024/04/17 02:31:41;;;;;;;;;;;;;;;9.91;nan;99003.88;4550758;26;19923;-72
2024/04/17 02:33:41;;;;;;;;;;;;;;;9.92;nan;99004.72;4562010;26;20003;-72
2024/04/17 02:35:41;;;;;;;;;;;;;;;9.87;nan;99007.03;4541294;26;20752;-72
2024/04/17 02:37:42;;;;;;;;;;;;;;;9.64;nan;99005.84;4540667;26;19940;-72
2024/04/17 02:39:42;;;;;;;;;;;;;;;9.44;nan;99012.47;4540556;26;19928;-72
2024/04/17 02:41:42;;;;;;;;;;;;;;;9.59;nan;98999.34;4540043;26;19928;-72
2024/04/17 02:43:43;;;;;;;;;;;;;;;9.74;nan;99011.03;4540285;26;20385;-72
2024/04/17 02:45:43;;;;;;;;;;;;;;;9.74;nan;99007.53;4540592;26;19932;-72
2024/04/17 02:47:43;;;;;;;;;;;;;;;9.87;nan;99005.19;4508927;26;19928;-71
2024/04/17 02:49:44;;;;;;;;;;;;;;;9.90;nan;99004.06;4564645;26;19935;-72
2024/04/17 02:51:45;;;;;;;;;;;;;;;9.67;nan;99002.88;4546617;26;19931;-72
2024/04/17 02:53:45;;;;;;;;;;;;;;;9.77;nan;99004.53;4568449;26;19956;-72
2024/04/17 02:55:46;;;;;;;;;;;;;;;9.73;nan;99012.03;4570390;26;19996;-71
2024/04/17 02:57:46;;;;;;;;;;;;;;;9.74;nan;99012.88;4570217;26;20348;-71
2024/04/17 02:59:46;;;;;;;;;;;;;;;9.68;nan;99006.34;4537750;26;19959;-71
2024/04/17 03:01:47;;;;;;;;;;;;;;;9.74;nan;99008.34;4569256;26;20374;-72
2024/04/17 03:03:47;;;;;;;;;;;;;;;9.65;nan;99012.00;4568992;26;19927;-73
2024/04/17 03:05:47;;;;;;;;;;;;;;;9.63;nan;99022.03;4569193;26;19928;-73
2024/04/17 03:07:47;;;;;;;;;;;;;;;9.73;nan;99009.34;4538247;26;19936;-72
2024/04/17 03:09:50;;;;;;;;;;;;;;;9.59;nan;99018.84;4569903;26;20364;-71
2024/04/17 03:11:50;;;;;;;;;;;;;;;9.63;nan;99022.03;4570004;26;19991;-72
2024/04/17 03:13:50;;;;;;;;;;;;;;;9.86;nan;99016.06;4538288;26;19940;-72
2024/04/17 03:15:51;;;;;;;;;;;;;;;9.77;nan;99015.22;4570744;26;19938;-71
2024/04/17 03:17:51;;;;;;;;;;;;;;;9.71;nan;99016.72;4570594;26;19935;-73
2024/04/17 03:19:51;;;;;;;;;;;;;;;9.72;nan;99021.06;4570691;26;19982;-73
2024/04/17 03:21:52;;;;;;;;;;;;;;;9.88;nan;99019.41;4569604;26;19939;-71
2024/04/17 03:23:52;;;;;;;;;;;;;;;9.92;nan;99020.75;4538030;26;19935;-72
2024/04/17 03:25:53;;;;;;;;;;;;;;;9.98;nan;99017.41;4570373;26;19934;-72
2024/04/17 03:27:53;;;;;;;;;;;;;;;9.99;nan;99024.41;4569957;26;19927;-72
2024/04/17 03:29:54;;;;;;;;;;;;;;;9.79;nan;99022.06;4537679;26;20335;-71
2024/04/17 03:31:55;;;;;;;;;;;;;;;10.06;nan;99016.59;4568717;26;19927;-73
2024/04/17 03:33:55;;;;;;;;;;;;;;;10.12;nan;99029.25;4538830;26;19988;-72
2024/04/17 03:35:58;;;;;;;;;;;;;;;9.98;nan;99030.75;4589679;26;19928;-73
2024/04/17 03:37:58;;;;;;;;;;;;;;;10.02;nan;99036.59;4547821;26;19935;-72
2024/04/17 03:39:59;;;;;;;;;;;;;;;10.08;nan;99028.75;4568575;26;19939;-72
2024/04/17 03:41:59;;;;;;;;;;;;;;;10.22;nan;99026.41;4568827;26;19927;-73
2024/04/17 03:43:59;;;;;;;;;;;;;;;10.05;nan;99037.09;4569620;26;19995;-72
2024/04/17 03:46:03;;;;;;;;;;;;;;;10.23;nan;99028.06;4569331;26;19939;-71
2024/04/17 03:48:03;;;;;;;;;;;;;;;10.45;nan;99022.09;4569648;26;19938;-72
2024/04/17 03:50:04;;;;;;;;;;;;;;;10.49;nan;99033.28;4569189;26;19927;-73
2024/04/17 03:52:05;;;;;;;;;;;;;;;10.74;nan;99028.72;4568664;26;19955;-72
2024/04/17 03:54:05;;;;;;;;;;;;;;;10.54;nan;99032.75;4569419;26;19927;-72
2024/04/17 03:56:05;;;;;;;;;;;;;;;10.42;nan;99038.44;4569077;26;19935;-72
2024/04/17 03:58:06;;;;;;;;;;;;;;;10.53;nan;99033.75;4568939;26;19964;-72
2024/04/17 04:00:06;;;;;;;;;;;;;;;10.62;nan;99035.41;4569282;26;19935;-72
2024/04/17 04:02:07;;;;;;;;;;;;;;;10.43;nan;99040.13;4568474;26;19951;-72
2024/04/17 04:04:07;;;;;;;;;;;;;;;10.42;nan;99035.78;4569286;26;19931;-72
2024/04/17 04:06:08;;;;;;;;;;;;;;;10.40;nan;99035.09;4569975;26;19928;-73
2024/04/17 04:08:08;;;;;;;;;;;;;;;10.45;nan;99042.63;4541246;26;19935;-71
2024/04/17 04:10:09;;;;;;;;;;;;;;;10.50;nan;99032.28;4574970;26;19927;-73
2024/04/17 04:12:09;;;;;;;;;;;;;;;10.53;nan;99033.75;4583661;26;19980;-73
2024/04/17 04:14:10;;;;;;;;;;;;;;;10.61;nan;99036.41;4586506;26;19927;-74
2024/04/17 04:16:10;;;;;;;;;;;;;;;10.69;nan;99039.06;4578402;26;19927;-72
2024/04/17 04:18:10;;;;;;;;;;;;;;;10.67;nan;99040.25;4570333;26;20432;-72
2024/04/17 04:20:11;;;;;;;;;;;;;;;10.59;nan;99039.28;4569929;26;19938;-71
2024/04/17 04:22:11;;;;;;;;;;;;;;;10.70;nan;99030.06;4570308;26;20260;-71
2024/04/17 04:24:11;;;;;;;;;;;;;;;10.76;nan;99040.09;4570729;26;20363;-72
2024/04/17 04:26:12;;;;;;;;;;;;;;;10.88;nan;99043.22;4569390;26;20242;-72
2024/04/17 04:28:12;;;;;;;;;;;;;;;10.75;nan;99049.09;4569348;26;19935;-72
2024/04/17 04:30:13;;;;;;;;;;;;;;;10.85;nan;99051.56;4536062;26;19981;-71
2024/04/17 04:32:13;;;;;;;;;;;;;;;10.88;nan;99045.03;4568496;26;20751;-72
2024/04/17 04:34:13;;;;;;;;;;;;;;;10.91;nan;99044.72;4569781;26;20416;-72
2024/04/17 04:36:14;;;;;;;;;;;;;;;11.00;nan;99050.88;4537981;26;20432;-72
2024/04/17 04:38:14;;;;;;;;;;;;;;;10.98;nan;99051.03;4569082;26;20444;-72
2024/04/17 04:40:14;;;;;;;;;;;;;;;10.97;nan;99056.56;4567214;26;20660;-73
2024/04/17 04:42:14;;;;;;;;;;;;;;;10.97;nan;99068.09;4567718;26;19938;-72
2024/04/17 04:44:15;;;;;;;;;;;;;;;11.17;nan;99057.84;4568663;26;19939;-72
2024/04/17 04:46:15;;;;;;;;;;;;;;;11.19;nan;99065.69;4568587;26;20036;-74
2024/04/17 04:48:15;;;;;;;;;;;;;;;11.54;nan;99056.34;4568505;26;19956;-72
2024/04/17 04:50:16;;;;;;;;;;;;;;;11.30;nan;99061.78;4568954;26;19963;-74
2024/04/17 04:52:16;;;;;;;;;;;;;;;11.23;nan;99069.69;4568426;26;19934;-73
2024/04/17 04:54:16;;;;;;;;;;;;;;;11.28;nan;99070.00;4569685;26;19928;-72
2024/04/17 04:56:17;;;;;;;;;;;;;;;11.26;nan;99065.84;4569577;26;19934;-72
2024/04/17 04:58:17;;;;;;;;;;;;;;;11.17;nan;99070.38;4568860;26;19955;-71
2024/04/17 05:00:17;;;;;;;;;;;;;;;11.36;nan;99072.63;4571893;26;19938;-72
2024/04/17 05:02:17;;;;;;;;;;;;;;;11.20;nan;99073.53;4569159;26;19977;-72
2024/04/17 05:04:18;;;;;;;;;;;;;;;11.36;nan;99069.97;4570795;26;19928;-72
2024/04/17 05:06:19;;;;;;;;;;;;;;;11.48;nan;99074.94;4579547;26;19927;-72
2024/04/17 05:08:20;;;;;;;;;;;;;;;11.42;nan;99075.63;4580704;26;20007;-72
2024/04/17 05:10:20;;;;;;;;;;;;;;;11.24;nan;99071.38;4570739;26;19939;-73
2024/04/17 05:12:21;;;;;;;;;;;;;;;11.15;nan;99075.91;4569900;26;20251;-72
2024/04/17 05:14:21;;;;;;;;;;;;;;;11.16;nan;99087.41;4570892;26;19928;-71
2024/04/17 05:16:21;;;;;;;;;;;;;;;11.17;nan;99083.75;4568413;26;19935;-72
2024/04/17 05:18:21;;;;;;;;;;;;;;;11.17;nan;99089.09;4572443;26;19935;-73
2024/04/17 05:20:22;;;;;;;;;;;;;;;11.01;nan;99090.81;4568488;26;19956;-72
2024/04/17 05:22:22;;;;;;;;;;;;;;;10.87;nan;99089.69;4568124;26;19934;-72
2024/04/17 05:24:22;;;;;;;;;;;;;;;10.85;nan;99097.03;4568127;26;19931;-70
2024/04/17 05:26:22;;;;;;;;;;;;;;;10.90;nan;99094.69;4568158;25;19928;-72
2024/04/17 05:28:23;;;;;;;;;;;;;;;11.08;nan;99102.50;4567154;26;19928;-72
2024/04/17 05:30:23;;;;;;;;;;;;;;;10.99;nan;99100.03;4567769;26;19989;-71
2024/04/17 05:32:23;;;;;;;;;;;;;;;11.11;nan;99106.66;4567899;26;19935;-71
2024/04/17 05:34:24;;;;;;;;;;;;;;;10.91;nan;99100.88;4568879;26;20372;-71
2024/04/17 05:36:24;;;;;;;;;;;;;;;11.03;nan;99104.88;4569251;26;20744;-72
2024/04/17 05:38:24;;;;;;;;;;;;;;;11.01;nan;99104.19;4570068;26;19927;-72
2024/04/17 05:40:24;;;;;;;;;;;;;;;10.91;nan;99100.88;4567882;26;19994;-72
2024/04/17 05:42:25;;;;;;;;;;;;;;;10.83;nan;99108.91;4566946;26;20268;-71
2024/04/17 05:44:26;;;;;;;;;;;;;;;10.80;nan;99109.22;4568332;26;19927;-71
2024/04/17 05:46:27;;;;;;;;;;;;;;;10.91;nan;99111.56;4572369;26;19927;-74
2024/04/17 05:48:28;;;;;;;;;;;;;;;10.74;nan;99108.91;4571756;26;20024;-72
2024/04/17 05:50:28;;;;;;;;;;;;;;;10.92;nan;99111.38;4568645;26;19939;-72
2024/04/17 05:52:28;;;;;;;;;;;;;;;11.01;nan;99106.00;4567591;26;19931;-71
2024/04/17 05:54:29;;;;;;;;;;;;;;;11.01;nan;99112.22;4568324;26;19935;-71
2024/04/17 05:56:29;;;;;;;;;;;;;;;11.03;nan;99122.72;4571816;26;19940;-72
2024/04/17 05:58:29;;;;;;;;;;;;;;;11.07;nan;99113.38;4573705;26;19943;-71
2024/04/17 06:00:30;;;;;;;;;;;;;;;10.67;nan;99121.28;4573302;26;19928;-72
2024/04/17 06:02:30;;;;;;;;;;;;;;;11.04;nan;99119.91;4571804;26;20387;-71
2024/04/17 06:04:30;;;;;;;;;;;;;;;10.91;nan;99122.25;4571299;26;20007;-73
2024/04/17 06:06:31;;;;;;;;;;;;;;;10.72;nan;99116.25;4571366;26;19931;-72
2024/04/17 06:08:31;;;;;;;;;;;;;;;10.95;nan;99128.94;4535960;26;19947;-72
2024/04/17 06:10:31;;;;;;;;;;;;;;;11.07;nan;99124.91;4568013;26;20364;-71
2024/04/17 06:12:32;;;;;;;;;;;;;;;11.20;nan;99126.22;4569163;26;19935;-71
2024/04/17 06:14:32;;;;;;;;;;;;;;;11.17;nan;99124.72;4577305;26;19939;-72
2024/04/17 06:16:32;;;;;;;;;;;;;;;11.31;nan;99128.53;4551484;26;19928;-72
2024/04/17 06:18:36;;;;;;;;;;;;;;;11.35;nan;99123.66;4584554;26;19936;-71
2024/04/17 06:20:36;;;;;;;;;;;;;;;10.87;nan;99131.59;4586478;26;19928;-71
2024/04/17 06:22:36;;;;;;;;;;;;;;;11.14;nan;99129.59;4584747;26;19986;-73
2024/04/17 06:24:36;;;;;;;;;;;;;;;10.73;nan;99131.31;4586774;25;19927;-77
2024/04/17 06:26:39;;;;;;;;;;;;;;;11.11;nan;99135.25;4551413;26;20356;-73
2024/04/17 06:28:39;;;;;;;;;;;;;;;11.08;nan;99139.13;4541968;26;19928;-71
2024/04/17 06:30:40;;;;;;;;;;;;;;;11.16;nan;99130.22;4542286;26;19935;-72
2024/04/17 06:32:40;;;;;;;;;;;;;;;11.22;nan;99140.25;4542243;26;20261;-71
2024/04/17 06:34:41;;;;;;;;;;;;;;;11.19;nan;99135.25;4541228;26;19935;-72
2024/04/17 06:36:47;;;;;;;;;;;;;;;11.16;nan;99139.09;4553635;26;19928;-72
2024/04/17 06:38:48;;;;;;;;;;;;;;;11.14;nan;99132.25;4548635;26;20001;-71
2024/04/17 06:40:48;;;;;;;;;;;;;;;11.17;nan;99134.56;4538174;26;19943;-71
2024/04/17 06:42:48;;;;;;;;;;;;;;;11.25;nan;99142.56;4539391;26;19936;-71
2024/04/17 06:44:49;;;;;;;;;;;;;;;11.45;nan;99136.81;4540109;26;20268;-71
2024/04/17 06:46:49;;;;;;;;;;;;;;;11.47;nan;99137.50;4541054;26;19932;-74
2024/04/17 06:48:50;;;;;;;;;;;;;;;11.05;nan;99145.63;4541771;26;19973;-72
2024/04/17 06:50:51;;;;;;;;;;;;;;;10.90;nan;99153.53;4538879;26;20264;-71
2024/04/17 06:52:51;;;;;;;;;;;;;;;10.54;nan;99148.50;4507433;26;19928;-71
2024/04/17 06:54:51;;;;;;;;;;;;;;;10.96;nan;99151.97;4542530;26;19973;-72
2024/04/17 06:56:52;;;;;;;;;;;;;;;11.26;nan;99152.28;4544552;26;19938;-72
2024/04/17 06:58:52;;;;;;;;;;;;;;;11.56;nan;99141.81;4544538;26;19996;-72
2024/04/17 07:00:53;;;;;;;;;;;;;;;11.13;nan;99147.44;4541934;26;19928;-72
2024/04/17 07:02:53;;;;;;;;;;;;;;;11.42;nan;99155.94;4540694;26;19935;-72
2024/04/17 07:04:53;;;;;;;;;;;;;;;11.47;nan;99148.19;4541796;26;19935;-71
2024/04/17 07:06:54;;;;;;;;;;;;;;;11.55;nan;99142.81;4540691;26;20317;-71
2024/04/17 07:08:54;;;;;;;;;;;;;;;11.27;nan;99153.94;4539516;26;19935;-73
2024/04/17 07:10:54;;;;;;;;;;;;;;;11.27;nan;99153.13;4507480;26;19978;-71
2024/04/17 07:12:55;;;;;;;;;;;;;;;11.00;nan;99157.84;4506675;26;19929;-72
2024/04/17 07:14:55;;;;;;;;;;;;;;;11.06;nan;99159.84;4539271;26;19935;-72
2024/04/17 07:16:55;;;;;;;;;;;;;;;10.85;nan;99165.72;4539443;26;19928;-72
2024/04/17 07:18:56;;;;;;;;;;;;;;;11.16;nan;99159.66;4539820;26;19935;-71
2024/04/17 07:20:56;;;;;;;;;;;;;;;11.57;nan;99156.03;4540954;26;19978;-71
2024/04/17 07:22:56;;;;;;;;;;;;;;;11.41;nan;99156.94;4538365;26;19927;-72
2024/04/17 07:24:57;;;;;;;;;;;;;;;11.48;nan;99157.91;4544740;25;19927;-71
2024/04/17 07:26:57;;;;;;;;;;;;;;;11.20;nan;99161.81;4570410;26;20412;-71
2024/04/17 07:28:57;;;;;;;;;;;;;;;11.24;nan;99151.63;4578792;26;19942;-71
2024/04/17 07:30:57;;;;;;;;;;;;;;;11.67;nan;99148.63;4579413;26;20403;-72
2024/04/17 07:32:58;;;;;;;;;;;;;;;11.76;nan;99158.28;4581954;26;20300;-73
2024/04/17 07:34:58;;;;;;;;;;;;;;;11.57;nan;99153.38;4584490;26;19938;-72
2024/04/17 07:36:58;;;;;;;;;;;;;;;11.67;nan;99149.47;4578782;26;19927;-72
2024/04/17 07:38:59;;;;;;;;;;;;;;;11.94;nan;99149.19;4570148;26;19963;-72
2024/04/17 07:41:02;;;;;;;;;;;;;;;11.88;nan;99150.72;4569182;26;19994;-71
2024/04/17 07:43:03;;;;;;;;;;;;;;;12.02;nan;99155.34;4568389;26;19927;-71
2024/04/17 07:45:03;;;;;;;;;;;;;;;12.01;nan;99159.03;4569568;26;20360;-72
2024/04/17 07:47:03;;;;;;;;;;;;;;;12.25;nan;99154.56;4569284;26;19927;-72
2024/04/17 07:49:04;;;;;;;;;;;;;;;12.40;nan;99151.09;4568783;26;20039;-72
2024/04/17 07:51:04;;;;;;;;;;;;;;;12.52;nan;99154.19;4536324;26;19980;-71
2024/04/17 07:53:04;;;;;;;;;;;;;;;12.13;nan;99156.81;4568371;26;20374;-72
2024/04/17 07:55:05;;;;;;;;;;;;;;;12.30;nan;99154.84;4569372;26;20364;-71
2024/04/17 07:57:05;;;;;;;;;;;;;;;12.09;nan;99158.16;4569584;26;19927;-71
2024/04/17 07:59:06;;;;;;;;;;;;;;;12.29;nan;99153.16;4569667;26;19927;-71
2024/04/17 08:01:07;;;;;;;;;;;;;;;12.25;nan;99159.91;4569897;26;20360;-72
2024/04/17 08:03:08;;;;;;;;;;;;;;;12.57;nan;99155.31;4569999;26;19986;-72
2024/04/17 08:05:09;;;;;;;;;;;;;;;12.40;nan;99148.41;4584670;26;19928;-73
2024/04/17 08:07:16;;;;;;;;;;;;;;;12.50;nan;99156.22;4587471;26;19968;-72
2024/04/17 08:09:17;;;;;;;;;;;;;;;12.48;nan;99156.38;4575393;26;19957;-70
2024/04/17 08:11:17;;;;;;;;;;;;;;;12.48;nan;99151.03;4569854;26;19927;-71
2024/04/17 08:13:17;;;;;;;;;;;;;;;12.52;nan;99156.84;4571973;26;20271;-71
2024/04/17 08:15:20;;;;;;;;;;;;;;;12.44;nan;99160.44;4571375;26;19935;-72
2024/04/17 08:17:21;;;;;;;;;;;;;;;12.20;nan;99156.91;4569643;26;19955;-70
2024/04/17 08:19:21;;;;;;;;;;;;;;;12.28;nan;99154.19;4568409;26;19999;-71
2024/04/17 08:21:22;;;;;;;;;;;;;;;12.18;nan;99158.97;4567818;26;20275;-71
2024/04/17 08:23:22;;;;;;;;;;;;;;;12.42;nan;99160.63;4568420;26;19927;-72
2024/04/17 08:25:22;;;;;;;;;;;;;;;12.31;nan;99163.72;4568058;25;19934;-72
2024/04/17 08:27:23;;;;;;;;;;;;;;;12.39;nan;99169.03;4537862;26;19959;-71
2024/04/17 08:29:23;;;;;;;;;;;;;;;12.35;nan;99159.66;4569152;26;19961;-72
2024/04/17 08:31:23;;;;;;;;;;;;;;;12.46;nan;99163.78;4567701;26;19927;-70
2024/04/17 08:33:23;;;;;;;;;;;;;;;12.42;nan;99165.16;4536749;26;19932;-71
2024/04/17 08:35:24;;;;;;;;;;;;;;;12.51;nan;99169.44;4568687;26;20429;-70
2024/04/17 08:37:24;;;;;;;;;;;;;;;12.46;nan;99156.56;4568771;26;20312;-74
2024/04/17 08:39:24;;;;;;;;;;;;;;;12.57;nan;99163.34;4568396;26;20359;-72
2024/04/17 08:41:28;;;;;;;;;;;;;;;12.79;nan;99172.41;4567904;26;19927;-71
2024/04/17 08:43:31;;;;;;;;;;;;;;;12.90;nan;99165.78;4568484;26;20559;-70
2024/04/17 08:45:35;;;;;;;;;;;;;;;12.89;nan;99158.75;4568917;26;19996;-73
2024/04/17 08:47:36;;;;;;;;;;;;;;;12.89;nan;99157.94;4568561;26;20375;-72
2024/04/17 08:49:36;;;;;;;;;;;;;;;12.74;nan;99168.59;4568832;26;19935;-71
2024/04/17 08:51:37;;;;;;;;;;;;;;;12.83;nan;99162.16;4567547;26;19931;-72
2024/04/17 08:53:38;;;;;;;;;;;;;;;13.10;nan;99171.44;4568897;26;19939;-71
2024/04/17 08:55:39;;;;;;;;;;;;;;;12.72;nan;99155.38;4568436;26;19927;-71
2024/04/17 08:57:39;;;;;;;;;;;;;;;12.11;nan;99171.38;4569200;26;20656;-72
2024/04/17 08:59:39;;;;;;;;;;;;;;;12.36;nan;99172.06;4573077;26;19927;-71
2024/04/17 09:01:41;;;;;;;;;;;;;;;11.65;nan;99180.91;4570107;26;19934;-72
2024/04/17 09:03:42;;;;;;;;;;;;;;;11.75;nan;99174.53;4567375;26;19932;-72
2024/04/17 09:05:42;;;;;;;;;;;;;;;11.25;nan;99188.06;4568800;26;20360;-71
2024/04/17 09:07:43;;;;;;;;;;;;;;;11.84;nan;99179.69;4568872;26;19937;-71
2024/04/17 09:09:43;;;;;;;;;;;;;;;11.28;nan;99208.31;4568174;26;19972;-70
2024/04/17 09:11:44;;;;;;;;;;;;;;;10.69;nan;99207.47;4567849;26;19938;-70
2024/04/17 09:13:44;;;;;;;;;;;;;;;10.81;nan;99217.84;4568710;26;19933;-71
2024/04/17 09:15:45;;;;;;;;;;;;;;;11.17;nan;99215.66;4568714;26;19927;-71
2024/04/17 09:17:47;;;;;;;;;;;;;;;11.29;nan;99208.13;4535882;26;19935;-73
2024/04/17 09:19:48;;;;;;;;;;;;;;;11.32;nan;99210.47;4568244;26;20285;-70
2024/04/17 09:21:49;;;;;;;;;;;;;;;11.41;nan;99210.44;4568084;26;19927;-71
2024/04/17 09:23:50;;;;;;;;;;;;;;;11.35;nan;99207.44;4568300;26;19927;-71
2024/04/17 09:25:50;;;;;;;;;;;;;;;11.47;nan;99207.94;4568177;25;20002;-70
2024/04/17 09:27:50;;;;;;;;;;;;;;;11.52;nan;99208.25;4565504;26;19975;-73
2024/04/17 09:29:50;;;;;;;;;;;;;;;11.63;nan;99201.66;4568415;26;19935;-71
2024/04/17 09:31:51;;;;;;;;;;;;;;;11.70;nan;99202.69;4566916;26;19927;-72
2024/04/17 09:33:51;;;;;;;;;;;;;;;11.78;nan;99196.44;4568449;26;19927;-72
2024/04/17 09:36:03;;;;;;;;;;;;;;;12.00;nan;99202.91;4576837;26;19936;-73
2024/04/17 09:38:14;;;;;;;;;;;;;;;11.98;nan;99198.72;4585946;26;19928;-70
2024/04/17 09:40:14;;;;;;;;;;;;;;;12.29;nan;99197.91;4567800;26;20368;-71
2024/04/17 09:42:15;;;;;;;;;;;;;;;12.19;nan;99205.31;4567542;26;19934;-71
2024/04/17 09:44:17;;;;;;;;;;;;;;;12.30;nan;99199.56;4567573;26;19927;-72
2024/04/17 09:46:19;;;;;;;;;;;;;;;12.50;nan;99194.56;4567728;26;20492;-72
2024/04/17 09:48:20;;;;;;;;;;;;;;;12.06;nan;99193.31;4570994;26;19936;-71
2024/04/17 09:50:25;;;;;;;;;;;;;;;11.83;nan;99199.44;4581034;26;19927;-72
2024/04/17 09:52:27;;;;;;;;;;;;;;;11.98;nan;99194.22;4578003;26;20388;-72
2024/04/17 09:54:27;;;;;;;;;;;;;;;12.02;nan;99194.69;4568304;26;19935;-72
2024/04/17 09:56:28;;;;;;;;;;;;;;;12.58;nan;99193.69;4568259;26;19964;-70
2024/04/17 09:58:32;;;;;;;;;;;;;;;13.03;nan;99191.16;4567582;26;19985;-70
2024/04/17 10:00:32;;;;;;;;;;;;;;;13.56;nan;99183.94;4567148;26;20316;-72
2024/04/17 10:02:34;;;;;;;;;;;;;;;13.82;nan;99190.66;4567034;26;19934;-71
2024/04/17 10:04:34;;;;;;;;;;;;;;;13.85;nan;99184.94;4567538;26;19961;-71
2024/04/17 10:06:37;;;;;;;;;;;;;;;13.39;nan;99183.28;4567626;26;19931;-72
2024/04/17 10:08:37;;;;;;;;;;;;;;;13.96;nan;99172.03;4570169;26;19955;-72
2024/04/17 10:10:39;;;;;;;;;;;;;;;13.83;nan;99181.59;4567492;26;19927;-71
2024/04/17 10:12:39;;;;;;;;;;;;;;;14.18;nan;99173.72;4566133;26;19991;-72
2024/04/17 10:14:39;;;;;;;;;;;;;;;14.26;nan;99171.97;4568851;26;19935;-72
2024/04/17 10:16:40;;;;;;;;;;;;;;;14.35;nan;99173.53;4570329;26;20414;-70
2024/04/17 10:18:41;;;;;;;;;;;;;;;14.17;nan;99171.25;4575027;26;19935;-71
2024/04/17 10:20:42;;;;;;;;;;;;;;;13.34;nan;99174.06;4576266;26;20017;-71
2024/04/17 10:22:42;;;;;;;;;;;;;;;13.03;nan;99183.13;4579336;26;19943;-71
2024/04/17 10:24:42;;;;;;;;;;;;;;;12.43;nan;99182.91;4576209;25;20034;-71
2024/04/17 10:26:47;;;;;;;;;;;;;;;12.63;nan;99189.47;4545497;26;20372;-71
2024/04/17 10:28:51;;;;;;;;;;;;;;;13.15;nan;99181.63;4545368;26;19932;-71
2024/04/17 10:30:54;;;;;;;;;;;;;;;12.28;nan;99189.00;4540800;26;19928;-72
2024/04/17 10:32:55;;;;;;;;;;;;;;;12.30;nan;99188.84;4539307;26;19932;-71
2024/04/17 10:34:55;;;;;;;;;;;;;;;11.84;nan;99182.38;4539671;26;19993;-72
2024/04/17 10:37:02;;;;;;;;;;;;;;;11.98;nan;99182.66;4508267;26;19936;-72
2024/04/17 10:39:02;;;;;;;;;;;;;;;12.06;nan;99193.31;4539651;26;19932;-73
2024/04/17 10:41:02;;;;;;;;;;;;;;;12.25;nan;99184.03;4539410;26;20417;-71
2024/04/17 10:43:05;;;;;;;;;;;;;;;12.99;nan;99182.63;4538312;26;19928;-71
2024/04/17 10:45:05;;;;;;;;;;;;;;;12.56;nan;99175.13;4507475;26;19940;-71